sensor_id;sensor_type;location;lat;lon;timestamp;temperature;humidity
15609;DHT22;64278;45.642;13.756;2023-02-22T00:00:16;22.70;60.90
15609;DHT22;64278;45.642;13.756;2023-02-22T00:02:51;22.80;61.00
15609;DHT22;64278;45.642;13.756;2023-02-22T00:05:19;22.70;61.00
15609;DHT22;64278;45.642;13.756;2023-02-22T00:07:46;22.80;61.00
15609;DHT22;64278;45.642;13.756;2023-02-22T00:10:13;22.70;61.00
15609;DHT22;64278;45.642;13.756;2023-02-22T00:12:42;22.70;61.00
15609;DHT22;64278;45.642;13.756;2023-02-22T00:15:08;22.70;61.10
15609;DHT22;64278;45.642;13.756;2023-02-22T00:17:35;22.70;61.10
15609;DHT22;64278;45.642;13.756;2023-02-22T00:20:01;22.70;61.20
15609;DHT22;64278;45.642;13.756;2023-02-22T00:22:29;22.70;61.10
15609;DHT22;64278;45.642;13.756;2023-02-22T00:24:56;22.70;61.30
15609;DHT22;64278;45.642;13.756;2023-02-22T00:27:22;22.70;61.20
15609;DHT22;64278;45.642;13.756;2023-02-22T00:29:48;22.70;61.30
15609;DHT22;64278;45.642;13.756;2023-02-22T00:32:14;22.70;61.30
15609;DHT22;64278;45.642;13.756;2023-02-22T00:34:40;22.70;61.30
15609;DHT22;64278;45.642;13.756;2023-02-22T00:37:09;22.70;61.20
15609;DHT22;64278;45.642;13.756;2023-02-22T00:39:35;22.70;61.30
15609;DHT22;64278;45.642;13.756;2023-02-22T00:42:01;22.70;61.30
15609;DHT22;64278;45.642;13.756;2023-02-22T00:44:26;22.70;61.30
15609;DHT22;64278;45.642;13.756;2023-02-22T00:46:52;22.70;61.30
15609;DHT22;64278;45.642;13.756;2023-02-22T00:49:18;22.60;61.20
15609;DHT22;64278;45.642;13.756;2023-02-22T00:51:44;22.70;61.20
15609;DHT22;64278;45.642;13.756;2023-02-22T00:54:09;22.60;61.20
15609;DHT22;64278;45.642;13.756;2023-02-22T00:56:36;22.60;61.20
15609;DHT22;64278;45.642;13.756;2023-02-22T00:59:02;22.60;61.20
15609;DHT22;64278;45.642;13.756;2023-02-22T01:01:29;22.60;61.60
15609;DHT22;64278;45.642;13.756;2023-02-22T01:03:55;22.60;61.10
15609;DHT22;64278;45.642;13.756;2023-02-22T01:06:20;22.60;61.10
15609;DHT22;64278;45.642;13.756;2023-02-22T01:08:47;22.60;61.10
15609;DHT22;64278;45.642;13.756;2023-02-22T01:11:17;22.60;61.10
15609;DHT22;64278;45.642;13.756;2023-02-22T01:13:43;22.60;61.10
15609;DHT22;64278;45.642;13.756;2023-02-22T01:16:14;22.60;61.00
15609;DHT22;64278;45.642;13.756;2023-02-22T01:18:40;22.60;61.10
15609;DHT22;64278;45.642;13.756;2023-02-22T01:21:05;22.60;61.10
15609;DHT22;64278;45.642;13.756;2023-02-22T01:23:32;22.60;61.00
15609;DHT22;64278;45.642;13.756;2023-02-22T01:25:58;22.60;61.10
15609;DHT22;64278;45.642;13.756;2023-02-22T01:28:24;22.50;60.90
15609;DHT22;64278;45.642;13.756;2023-02-22T01:30:49;22.50;60.90
15609;DHT22;64278;45.642;13.756;2023-02-22T01:33:15;22.50;60.90
15609;DHT22;64278;45.642;13.756;2023-02-22T01:35:42;22.50;60.90
15609;DHT22;64278;45.642;13.756;2023-02-22T01:38:09;22.50;60.90
15609;DHT22;64278;45.642;13.756;2023-02-22T01:40:37;22.50;60.80
15609;DHT22;64278;45.642;13.756;2023-02-22T01:43:28;22.50;60.80
15609;DHT22;64278;45.642;13.756;2023-02-22T01:46:03;22.50;60.80
15609;DHT22;64278;45.642;13.756;2023-02-22T01:51:06;22.50;60.80
15609;DHT22;64278;45.642;13.756;2023-02-22T01:56:21;22.50;60.70
15609;DHT22;64278;45.642;13.756;2023-02-22T01:58:54;22.50;60.80
15609;DHT22;64278;45.642;13.756;2023-02-22T02:01:22;22.40;61.50
15609;DHT22;64278;45.642;13.756;2023-02-22T02:03:51;22.50;60.70
15609;DHT22;64278;45.642;13.756;2023-02-22T02:06:19;22.40;60.60
15609;DHT22;64278;45.642;13.756;2023-02-22T02:11:15;22.40;60.70
15609;DHT22;64278;45.642;13.756;2023-02-22T02:13:42;22.50;60.70
15609;DHT22;64278;45.642;13.756;2023-02-22T02:16:08;22.40;60.60
15609;DHT22;64278;45.642;13.756;2023-02-22T02:18:34;22.40;60.60
15609;DHT22;64278;45.642;13.756;2023-02-22T02:27:10;22.40;60.60
15609;DHT22;64278;45.642;13.756;2023-02-22T02:40:42;22.40;60.60
15609;DHT22;64278;45.642;13.756;2023-02-22T02:45:55;22.40;60.60
15609;DHT22;64278;45.642;13.756;2023-02-22T02:48:26;22.40;60.60
15609;DHT22;64278;45.642;13.756;2023-02-22T02:50:55;22.40;60.60
15609;DHT22;64278;45.642;13.756;2023-02-22T02:53:25;22.40;60.60
15609;DHT22;64278;45.642;13.756;2023-02-22T02:55:51;22.40;60.60
15609;DHT22;64278;45.642;13.756;2023-02-22T02:58:22;22.30;60.60
15609;DHT22;64278;45.642;13.756;2023-02-22T03:00:51;22.30;60.60
15609;DHT22;64278;45.642;13.756;2023-02-22T03:08:48;22.30;60.70
15609;DHT22;64278;45.642;13.756;2023-02-22T03:11:21;22.30;60.60
15609;DHT22;64278;45.642;13.756;2023-02-22T03:16:54;22.30;60.60
15609;DHT22;64278;45.642;13.756;2023-02-22T03:19:49;22.30;60.60
15609;DHT22;64278;45.642;13.756;2023-02-22T03:22:25;22.30;60.60
15609;DHT22;64278;45.642;13.756;2023-02-22T03:25:00;22.30;60.60
15609;DHT22;64278;45.642;13.756;2023-02-22T03:27:48;22.30;60.60
15609;DHT22;64278;45.642;13.756;2023-02-22T03:30:41;22.30;60.60
15609;DHT22;64278;45.642;13.756;2023-02-22T03:33:18;22.30;60.60
15609;DHT22;64278;45.642;13.756;2023-02-22T03:35:55;22.30;60.50
15609;DHT22;64278;45.642;13.756;2023-02-22T03:38:23;22.30;60.60
15609;DHT22;64278;45.642;13.756;2023-02-22T03:40:53;22.20;60.50
15609;DHT22;64278;45.642;13.756;2023-02-22T03:43:28;22.20;60.50
15609;DHT22;64278;45.642;13.756;2023-02-22T03:45:55;22.20;60.60
15609;DHT22;64278;45.642;13.756;2023-02-22T03:50:56;22.20;60.50
15609;DHT22;64278;45.642;13.756;2023-02-22T03:53:23;22.20;60.50
15609;DHT22;64278;45.642;13.756;2023-02-22T03:55:50;22.20;60.60
15609;DHT22;64278;45.642;13.756;2023-02-22T03:58:19;22.20;60.60
15609;DHT22;64278;45.642;13.756;2023-02-22T04:00:46;22.20;60.50
15609;DHT22;64278;45.642;13.756;2023-02-22T04:03:12;22.20;60.50
15609;DHT22;64278;45.642;13.756;2023-02-22T04:05:37;22.20;60.60
15609;DHT22;64278;45.642;13.756;2023-02-22T04:08:03;22.20;60.60
15609;DHT22;64278;45.642;13.756;2023-02-22T04:10:30;22.20;60.60
15609;DHT22;64278;45.642;13.756;2023-02-22T04:12:57;22.20;60.70
15609;DHT22;64278;45.642;13.756;2023-02-22T04:15:24;22.20;60.60
15609;DHT22;64278;45.642;13.756;2023-02-22T04:17:50;22.20;60.60
15609;DHT22;64278;45.642;13.756;2023-02-22T04:20:16;22.20;61.30
15609;DHT22;64278;45.642;13.756;2023-02-22T04:22:44;22.20;60.60
15609;DHT22;64278;45.642;13.756;2023-02-22T04:25:10;22.20;60.60
15609;DHT22;64278;45.642;13.756;2023-02-22T04:27:36;22.10;60.50
15609;DHT22;64278;45.642;13.756;2023-02-22T04:30:03;22.20;60.50
15609;DHT22;64278;45.642;13.756;2023-02-22T04:32:28;22.20;60.50
15609;DHT22;64278;45.642;13.756;2023-02-22T04:34:54;22.20;60.50
15609;DHT22;64278;45.642;13.756;2023-02-22T04:37:20;22.20;60.40
15609;DHT22;64278;45.642;13.756;2023-02-22T04:39:45;22.10;60.40
15609;DHT22;64278;45.642;13.756;2023-02-22T04:42:11;22.10;60.30
15609;DHT22;64278;45.642;13.756;2023-02-22T04:44:36;22.10;60.20
15609;DHT22;64278;45.642;13.756;2023-02-22T04:47:02;22.10;60.10
15609;DHT22;64278;45.642;13.756;2023-02-22T04:49:28;22.10;60.10
15609;DHT22;64278;45.642;13.756;2023-02-22T04:51:53;22.10;60.00
15609;DHT22;64278;45.642;13.756;2023-02-22T04:54:19;22.10;59.90
15609;DHT22;64278;45.642;13.756;2023-02-22T04:56:45;22.10;59.80
15609;DHT22;64278;45.642;13.756;2023-02-22T04:59:10;22.10;59.90
15609;DHT22;64278;45.642;13.756;2023-02-22T05:01:36;22.10;59.80
15609;DHT22;64278;45.642;13.756;2023-02-22T05:04:06;22.10;59.80
15609;DHT22;64278;45.642;13.756;2023-02-22T05:06:32;22.10;59.80
15609;DHT22;64278;45.642;13.756;2023-02-22T05:08:58;22.00;59.80
15609;DHT22;64278;45.642;13.756;2023-02-22T05:11:23;22.10;59.80
15609;DHT22;64278;45.642;13.756;2023-02-22T05:13:49;22.00;59.70
15609;DHT22;64278;45.642;13.756;2023-02-22T05:16:15;22.00;59.70
15609;DHT22;64278;45.642;13.756;2023-02-22T05:18:41;22.00;59.70
15609;DHT22;64278;45.642;13.756;2023-02-22T05:21:07;22.00;59.60
15609;DHT22;64278;45.642;13.756;2023-02-22T05:23:33;22.00;59.60
15609;DHT22;64278;45.642;13.756;2023-02-22T05:25:59;22.00;59.60
15609;DHT22;64278;45.642;13.756;2023-02-22T05:28:25;22.00;59.60
15609;DHT22;64278;45.642;13.756;2023-02-22T05:30:51;22.00;59.50
15609;DHT22;64278;45.642;13.756;2023-02-22T05:33:17;22.00;59.50
15609;DHT22;64278;45.642;13.756;2023-02-22T05:35:43;22.00;59.90
15609;DHT22;64278;45.642;13.756;2023-02-22T05:38:10;22.00;59.50
15609;DHT22;64278;45.642;13.756;2023-02-22T05:40:36;22.00;59.50
15609;DHT22;64278;45.642;13.756;2023-02-22T05:43:02;22.00;59.50
15609;DHT22;64278;45.642;13.756;2023-02-22T05:45:28;22.00;59.50
15609;DHT22;64278;45.642;13.756;2023-02-22T05:47:54;22.00;59.50
15609;DHT22;64278;45.642;13.756;2023-02-22T05:50:20;22.00;59.50
15609;DHT22;64278;45.642;13.756;2023-02-22T05:52:47;21.90;59.40
15609;DHT22;64278;45.642;13.756;2023-02-22T05:55:18;22.00;59.40
15609;DHT22;64278;45.642;13.756;2023-02-22T05:57:44;22.00;59.40
15609;DHT22;64278;45.642;13.756;2023-02-22T06:00:25;22.00;59.30
15609;DHT22;64278;45.642;13.756;2023-02-22T06:02:56;21.90;59.30
15609;DHT22;64278;45.642;13.756;2023-02-22T06:05:22;21.90;59.30
15609;DHT22;64278;45.642;13.756;2023-02-22T06:07:48;21.90;59.30
15609;DHT22;64278;45.642;13.756;2023-02-22T06:10:14;21.90;59.20
15609;DHT22;64278;45.642;13.756;2023-02-22T06:12:39;21.90;59.20
15609;DHT22;64278;45.642;13.756;2023-02-22T06:15:06;21.90;59.20
15609;DHT22;64278;45.642;13.756;2023-02-22T06:17:31;21.90;59.20
15609;DHT22;64278;45.642;13.756;2023-02-22T06:19:57;21.90;59.20
15609;DHT22;64278;45.642;13.756;2023-02-22T06:22:23;21.90;59.20
15609;DHT22;64278;45.642;13.756;2023-02-22T06:24:48;21.90;59.20
15609;DHT22;64278;45.642;13.756;2023-02-22T06:27:14;21.90;59.20
15609;DHT22;64278;45.642;13.756;2023-02-22T06:29:44;21.90;59.20
15609;DHT22;64278;45.642;13.756;2023-02-22T06:32:11;21.90;59.20
15609;DHT22;64278;45.642;13.756;2023-02-22T06:34:36;21.90;59.20
15609;DHT22;64278;45.642;13.756;2023-02-22T06:37:02;21.90;59.30
15609;DHT22;64278;45.642;13.756;2023-02-22T06:39:28;21.90;59.30
15609;DHT22;64278;45.642;13.756;2023-02-22T06:41:53;21.90;59.30
15609;DHT22;64278;45.642;13.756;2023-02-22T06:44:20;21.90;59.30
15609;DHT22;64278;45.642;13.756;2023-02-22T06:46:49;21.90;59.20
15609;DHT22;64278;45.642;13.756;2023-02-22T06:49:16;21.90;59.20
15609;DHT22;64278;45.642;13.756;2023-02-22T06:51:42;21.90;59.20
15609;DHT22;64278;45.642;13.756;2023-02-22T06:54:08;21.90;59.20
15609;DHT22;64278;45.642;13.756;2023-02-22T06:56:34;21.90;59.20
15609;DHT22;64278;45.642;13.756;2023-02-22T06:59:00;21.80;59.10
15609;DHT22;64278;45.642;13.756;2023-02-22T07:01:28;21.80;59.20
15609;DHT22;64278;45.642;13.756;2023-02-22T07:03:53;21.80;59.20
15609;DHT22;64278;45.642;13.756;2023-02-22T07:06:19;21.80;59.20
15609;DHT22;64278;45.642;13.756;2023-02-22T07:08:45;21.80;59.20
15609;DHT22;64278;45.642;13.756;2023-02-22T07:11:11;21.80;59.10
15609;DHT22;64278;45.642;13.756;2023-02-22T07:13:36;21.80;59.20
15609;DHT22;64278;45.642;13.756;2023-02-22T07:16:02;21.80;59.20
15609;DHT22;64278;45.642;13.756;2023-02-22T07:18:28;21.80;59.20
15609;DHT22;64278;45.642;13.756;2023-02-22T07:20:53;21.80;59.20
15609;DHT22;64278;45.642;13.756;2023-02-22T07:23:19;21.80;59.20
15609;DHT22;64278;45.642;13.756;2023-02-22T07:25:45;21.80;59.20
15609;DHT22;64278;45.642;13.756;2023-02-22T07:28:11;21.80;59.20
15609;DHT22;64278;45.642;13.756;2023-02-22T07:30:37;21.80;59.20
15609;DHT22;64278;45.642;13.756;2023-02-22T07:33:08;21.80;59.20
15609;DHT22;64278;45.642;13.756;2023-02-22T07:35:36;21.80;59.70
15609;DHT22;64278;45.642;13.756;2023-02-22T07:38:06;21.80;59.10
15609;DHT22;64278;45.642;13.756;2023-02-22T07:40:37;21.80;59.00
15609;DHT22;64278;45.642;13.756;2023-02-22T07:45:33;21.80;59.00
15609;DHT22;64278;45.642;13.756;2023-02-22T07:48:00;21.80;58.90
15609;DHT22;64278;45.642;13.756;2023-02-22T07:50:28;21.80;58.80
15609;DHT22;64278;45.642;13.756;2023-02-22T07:52:56;21.80;58.80
15609;DHT22;64278;45.642;13.756;2023-02-22T07:55:25;21.80;58.80
15609;DHT22;64278;45.642;13.756;2023-02-22T07:57:55;21.80;58.80
15609;DHT22;64278;45.642;13.756;2023-02-22T08:00:38;21.80;58.70
15609;DHT22;64278;45.642;13.756;2023-02-22T08:03:10;21.80;58.70
15609;DHT22;64278;45.642;13.756;2023-02-22T08:05:40;21.70;58.70
15609;DHT22;64278;45.642;13.756;2023-02-22T08:08:06;21.70;58.60
15609;DHT22;64278;45.642;13.756;2023-02-22T08:10:34;21.70;58.60
15609;DHT22;64278;45.642;13.756;2023-02-22T08:13:00;21.70;58.50
15609;DHT22;64278;45.642;13.756;2023-02-22T08:15:27;21.70;58.50
15609;DHT22;64278;45.642;13.756;2023-02-22T08:17:55;21.70;58.50
15609;DHT22;64278;45.642;13.756;2023-02-22T08:20:21;21.70;58.50
15609;DHT22;64278;45.642;13.756;2023-02-22T08:22:47;21.70;58.40
15609;DHT22;64278;45.642;13.756;2023-02-22T08:25:14;21.70;58.40
15609;DHT22;64278;45.642;13.756;2023-02-22T08:27:41;21.70;58.40
15609;DHT22;64278;45.642;13.756;2023-02-22T08:30:09;21.70;58.40
15609;DHT22;64278;45.642;13.756;2023-02-22T08:32:35;21.70;58.40
15609;DHT22;64278;45.642;13.756;2023-02-22T08:35:04;21.70;58.30
15609;DHT22;64278;45.642;13.756;2023-02-22T08:37:30;21.70;58.30
15609;DHT22;64278;45.642;13.756;2023-02-22T08:39:56;21.70;58.30
15609;DHT22;64278;45.642;13.756;2023-02-22T08:42:21;21.70;58.20
15609;DHT22;64278;45.642;13.756;2023-02-22T08:44:47;21.70;58.00
15609;DHT22;64278;45.642;13.756;2023-02-22T08:47:12;21.70;56.60
15609;DHT22;64278;45.642;13.756;2023-02-22T08:49:38;21.60;55.10
15609;DHT22;64278;45.642;13.756;2023-02-22T08:52:04;21.50;54.20
15609;DHT22;64278;45.642;13.756;2023-02-22T08:54:29;21.60;55.10
15609;DHT22;64278;45.642;13.756;2023-02-22T08:56:55;21.60;55.70
15609;DHT22;64278;45.642;13.756;2023-02-22T08:59:21;21.70;55.90
15609;DHT22;64278;45.642;13.756;2023-02-22T09:01:47;21.70;55.90
15609;DHT22;64278;45.642;13.756;2023-02-22T09:04:12;21.80;55.90
15609;DHT22;64278;45.642;13.756;2023-02-22T09:06:41;21.80;55.90
15609;DHT22;64278;45.642;13.756;2023-02-22T09:09:07;21.80;55.80
15609;DHT22;64278;45.642;13.756;2023-02-22T09:11:33;21.80;55.60
15609;DHT22;64278;45.642;13.756;2023-02-22T09:13:58;21.90;55.80
15609;DHT22;64278;45.642;13.756;2023-02-22T09:16:24;21.90;55.60
15609;DHT22;64278;45.642;13.756;2023-02-22T09:18:50;21.90;55.50
15609;DHT22;64278;45.642;13.756;2023-02-22T09:21:15;22.00;55.40
15609;DHT22;64278;45.642;13.756;2023-02-22T09:23:41;22.00;55.30
15609;DHT22;64278;45.642;13.756;2023-02-22T09:26:08;22.00;55.30
15609;DHT22;64278;45.642;13.756;2023-02-22T09:28:34;22.10;55.20
15609;DHT22;64278;45.642;13.756;2023-02-22T09:31:00;22.10;55.30
15609;DHT22;64278;45.642;13.756;2023-02-22T09:33:26;22.10;55.30
15609;DHT22;64278;45.642;13.756;2023-02-22T09:35:51;22.20;55.30
15609;DHT22;64278;45.642;13.756;2023-02-22T09:38:19;22.20;55.30
15609;DHT22;64278;45.642;13.756;2023-02-22T09:41:13;22.20;55.20
15609;DHT22;64278;45.642;13.756;2023-02-22T09:43:48;22.30;55.40
15609;DHT22;64278;45.642;13.756;2023-02-22T09:46:29;22.30;55.50
15609;DHT22;64278;45.642;13.756;2023-02-22T09:49:03;22.30;56.10
15609;DHT22;64278;45.642;13.756;2023-02-22T09:51:49;22.30;55.50
15609;DHT22;64278;45.642;13.756;2023-02-22T09:54:22;22.30;55.50
15609;DHT22;64278;45.642;13.756;2023-02-22T09:56:51;22.30;55.50
15609;DHT22;64278;45.642;13.756;2023-02-22T09:59:26;22.30;55.50
15609;DHT22;64278;45.642;13.756;2023-02-22T10:02:02;22.30;55.50
15609;DHT22;64278;45.642;13.756;2023-02-22T10:04:40;22.30;55.50
15609;DHT22;64278;45.642;13.756;2023-02-22T10:07:28;22.30;55.50
15609;DHT22;64278;45.642;13.756;2023-02-22T10:09:56;22.20;55.90
15609;DHT22;64278;45.642;13.756;2023-02-22T10:17:46;22.30;55.60
15609;DHT22;64278;45.642;13.756;2023-02-22T10:25:55;22.30;57.40
15609;DHT22;64278;45.642;13.756;2023-02-22T10:28:27;22.30;57.60
15609;DHT22;64278;45.642;13.756;2023-02-22T10:31:04;22.30;57.80
15609;DHT22;64278;45.642;13.756;2023-02-22T10:33:37;22.30;58.00
15609;DHT22;64278;45.642;13.756;2023-02-22T10:36:04;22.30;58.00
15609;DHT22;64278;45.642;13.756;2023-02-22T10:38:33;22.30;58.10
15609;DHT22;64278;45.642;13.756;2023-02-22T10:41:00;22.30;58.20
15609;DHT22;64278;45.642;13.756;2023-02-22T10:43:28;22.30;58.20
15609;DHT22;64278;45.642;13.756;2023-02-22T10:45:57;22.30;58.20
15609;DHT22;64278;45.642;13.756;2023-02-22T10:48:28;22.30;58.20
15609;DHT22;64278;45.642;13.756;2023-02-22T10:50:59;22.30;58.40
15609;DHT22;64278;45.642;13.756;2023-02-22T10:53:26;22.30;58.20
15609;DHT22;64278;45.642;13.756;2023-02-22T10:56:11;22.30;58.30
15609;DHT22;64278;45.642;13.756;2023-02-22T10:59:02;22.30;58.30
15609;DHT22;64278;45.642;13.756;2023-02-22T11:06:40;22.20;58.40
15609;DHT22;64278;45.642;13.756;2023-02-22T11:09:15;22.30;58.50
15609;DHT22;64278;45.642;13.756;2023-02-22T11:11:44;22.20;58.40
15609;DHT22;64278;45.642;13.756;2023-02-22T11:37:31;22.10;58.10
15609;DHT22;64278;45.642;13.756;2023-02-22T11:40:38;22.10;58.10
15609;DHT22;64278;45.642;13.756;2023-02-22T11:43:07;22.10;58.00
15609;DHT22;64278;45.642;13.756;2023-02-22T11:45:37;22.10;57.90
15609;DHT22;64278;45.642;13.756;2023-02-22T11:48:05;22.10;57.90
15609;DHT22;64278;45.642;13.756;2023-02-22T11:56:21;22.10;57.70
15609;DHT22;64278;45.642;13.756;2023-02-22T11:59:14;22.10;57.60
15609;DHT22;64278;45.642;13.756;2023-02-22T12:01:54;22.00;57.50
15609;DHT22;64278;45.642;13.756;2023-02-22T12:07:06;22.00;57.30
15609;DHT22;64278;45.642;13.756;2023-02-22T12:12:32;22.00;57.30
15609;DHT22;64278;45.642;13.756;2023-02-22T12:20:30;22.00;56.90
15609;DHT22;64278;45.642;13.756;2023-02-22T12:25:31;22.00;56.80
15609;DHT22;64278;45.642;13.756;2023-02-22T12:30:43;22.00;56.70
15609;DHT22;64278;45.642;13.756;2023-02-22T12:33:14;22.10;56.60
15609;DHT22;64278;45.642;13.756;2023-02-22T12:35:48;22.00;56.30
15609;DHT22;64278;45.642;13.756;2023-02-22T12:38:31;22.00;55.90
15609;DHT22;64278;45.642;13.756;2023-02-22T12:41:06;22.00;55.40
15609;DHT22;64278;45.642;13.756;2023-02-22T12:43:51;21.90;55.10
15609;DHT22;64278;45.642;13.756;2023-02-22T12:46:39;21.90;54.50
15609;DHT22;64278;45.642;13.756;2023-02-22T12:54:43;21.80;55.20
15609;DHT22;64278;45.642;13.756;2023-02-22T13:00:08;21.90;56.80
15609;DHT22;64278;45.642;13.756;2023-02-22T13:02:41;21.90;57.90
15609;DHT22;64278;45.642;13.756;2023-02-22T13:05:15;21.90;59.00
15609;DHT22;64278;45.642;13.756;2023-02-22T13:08:02;21.90;60.00
15609;DHT22;64278;45.642;13.756;2023-02-22T13:10:52;22.00;60.50
15609;DHT22;64278;45.642;13.756;2023-02-22T13:16:15;22.00;60.90
15609;DHT22;64278;45.642;13.756;2023-02-22T13:19:00;22.00;60.70
15609;DHT22;64278;45.642;13.756;2023-02-22T13:21:35;22.00;60.50
15609;DHT22;64278;45.642;13.756;2023-02-22T13:24:17;22.00;60.20
15609;DHT22;64278;45.642;13.756;2023-02-22T13:26:51;22.00;59.90
15609;DHT22;64278;45.642;13.756;2023-02-22T13:29:22;22.00;59.80
15609;DHT22;64278;45.642;13.756;2023-02-22T13:37:30;22.00;59.50
15609;DHT22;64278;45.642;13.756;2023-02-22T13:51:04;21.90;58.60
15609;DHT22;64278;45.642;13.756;2023-02-22T13:56:04;21.90;59.00
15609;DHT22;64278;45.642;13.756;2023-02-22T13:58:30;21.90;58.30
15609;DHT22;64278;45.642;13.756;2023-02-22T14:00:57;21.90;58.30
15609;DHT22;64278;45.642;13.756;2023-02-22T14:03:34;22.00;58.20
15609;DHT22;64278;45.642;13.756;2023-02-22T14:06:06;21.90;58.10
15609;DHT22;64278;45.642;13.756;2023-02-22T14:16:28;21.90;57.90
15609;DHT22;64278;45.642;13.756;2023-02-22T14:21:31;21.90;57.80
15609;DHT22;64278;45.642;13.756;2023-02-22T14:24:08;21.90;57.80
15609;DHT22;64278;45.642;13.756;2023-02-22T14:26:39;21.90;57.80
15609;DHT22;64278;45.642;13.756;2023-02-22T14:34:50;21.80;57.50
15609;DHT22;64278;45.642;13.756;2023-02-22T14:37:31;21.80;57.50
15609;DHT22;64278;45.642;13.756;2023-02-22T14:40:03;21.80;57.40
15609;DHT22;64278;45.642;13.756;2023-02-22T14:43:21;21.80;57.40
15609;DHT22;64278;45.642;13.756;2023-02-22T14:45:31;21.80;57.40
15609;DHT22;64278;45.642;13.756;2023-02-22T14:50:55;21.80;57.30
15609;DHT22;64278;45.642;13.756;2023-02-22T14:53:28;21.80;57.20
15609;DHT22;64278;45.642;13.756;2023-02-22T14:56:04;21.80;57.10
15609;DHT22;64278;45.642;13.756;2023-02-22T15:01:25;21.80;57.10
15609;DHT22;64278;45.642;13.756;2023-02-22T15:03:51;21.80;57.10
15609;DHT22;64278;45.642;13.756;2023-02-22T15:06:25;21.80;57.10
15609;DHT22;64278;45.642;13.756;2023-02-22T15:09:09;21.80;57.10
15609;DHT22;64278;45.642;13.756;2023-02-22T15:11:36;21.80;57.10
15609;DHT22;64278;45.642;13.756;2023-02-22T15:14:10;21.80;57.10
15609;DHT22;64278;45.642;13.756;2023-02-22T15:16:49;21.80;57.20
15609;DHT22;64278;45.642;13.756;2023-02-22T15:19:24;21.80;57.30
15609;DHT22;64278;45.642;13.756;2023-02-22T15:21:53;21.80;57.50
15609;DHT22;64278;45.642;13.756;2023-02-22T15:24:45;21.70;57.80
15609;DHT22;64278;45.642;13.756;2023-02-22T15:27:18;21.80;58.10
15609;DHT22;64278;45.642;13.756;2023-02-22T15:29:44;21.80;58.30
15609;DHT22;64278;45.642;13.756;2023-02-22T15:32:19;21.80;58.40
15609;DHT22;64278;45.642;13.756;2023-02-22T15:34:53;21.80;58.60
15609;DHT22;64278;45.642;13.756;2023-02-22T15:37:23;21.80;58.60
15609;DHT22;64278;45.642;13.756;2023-02-22T15:39:51;21.80;58.70
15609;DHT22;64278;45.642;13.756;2023-02-22T15:42:25;21.80;58.80
15609;DHT22;64278;45.642;13.756;2023-02-22T15:44:53;21.80;58.90
15609;DHT22;64278;45.642;13.756;2023-02-22T15:47:27;21.80;59.00
15609;DHT22;64278;45.642;13.756;2023-02-22T15:50:13;21.80;59.10
15609;DHT22;64278;45.642;13.756;2023-02-22T15:55:27;21.80;59.40
15609;DHT22;64278;45.642;13.756;2023-02-22T15:57:56;21.80;59.40
15609;DHT22;64278;45.642;13.756;2023-02-22T16:00:30;21.80;59.60
15609;DHT22;64278;45.642;13.756;2023-02-22T16:03:11;21.80;59.80
15609;DHT22;64278;45.642;13.756;2023-02-22T16:05:47;21.70;59.80
15609;DHT22;64278;45.642;13.756;2023-02-22T16:10:50;21.70;60.00
15609;DHT22;64278;45.642;13.756;2023-02-22T16:16:04;21.80;60.80
15609;DHT22;64278;45.642;13.756;2023-02-22T16:18:33;21.70;60.90
15609;DHT22;64278;45.642;13.756;2023-02-22T16:21:11;21.70;61.00
15609;DHT22;64278;45.642;13.756;2023-02-22T16:23:49;21.70;60.90
15609;DHT22;64278;45.642;13.756;2023-02-22T16:26:32;21.80;60.90
15609;DHT22;64278;45.642;13.756;2023-02-22T16:29:04;21.80;60.90
15609;DHT22;64278;45.642;13.756;2023-02-22T16:31:36;21.70;60.70
15609;DHT22;64278;45.642;13.756;2023-02-22T16:34:06;21.70;60.70
15609;DHT22;64278;45.642;13.756;2023-02-22T16:36:41;21.70;60.80
15609;DHT22;64278;45.642;13.756;2023-02-22T16:39:32;21.70;60.90
15609;DHT22;64278;45.642;13.756;2023-02-22T16:42:03;21.70;61.00
15609;DHT22;64278;45.642;13.756;2023-02-22T16:44:29;21.70;61.00
15609;DHT22;64278;45.642;13.756;2023-02-22T16:46:57;21.70;61.00
15609;DHT22;64278;45.642;13.756;2023-02-22T16:49:24;21.70;61.00
15609;DHT22;64278;45.642;13.756;2023-02-22T16:51:52;21.70;61.00
15609;DHT22;64278;45.642;13.756;2023-02-22T16:54:32;21.70;61.10
15609;DHT22;64278;45.642;13.756;2023-02-22T16:57:00;21.70;61.00
15609;DHT22;64278;45.642;13.756;2023-02-22T16:59:30;21.70;60.90
15609;DHT22;64278;45.642;13.756;2023-02-22T17:01:57;21.70;60.90
15609;DHT22;64278;45.642;13.756;2023-02-22T17:04:24;21.70;60.80
15609;DHT22;64278;45.642;13.756;2023-02-22T17:06:51;21.70;60.80
15609;DHT22;64278;45.642;13.756;2023-02-22T17:09:17;21.70;60.80
15609;DHT22;64278;45.642;13.756;2023-02-22T17:11:45;21.70;60.70
15609;DHT22;64278;45.642;13.756;2023-02-22T17:14:17;21.70;60.70
15609;DHT22;64278;45.642;13.756;2023-02-22T17:16:44;21.60;60.60
15609;DHT22;64278;45.642;13.756;2023-02-22T17:19:15;21.60;60.50
15609;DHT22;64278;45.642;13.756;2023-02-22T17:21:41;21.60;60.50
15609;DHT22;64278;45.642;13.756;2023-02-22T17:24:11;21.60;60.50
15609;DHT22;64278;45.642;13.756;2023-02-22T17:26:38;21.60;60.40
15609;DHT22;64278;45.642;13.756;2023-02-22T17:29:04;21.60;60.40
15609;DHT22;64278;45.642;13.756;2023-02-22T17:31:30;21.60;60.30
15609;DHT22;64278;45.642;13.756;2023-02-22T17:34:02;21.60;60.30
15609;DHT22;64278;45.642;13.756;2023-02-22T17:36:30;21.60;60.20
15609;DHT22;64278;45.642;13.756;2023-02-22T17:38:57;21.60;60.20
15609;DHT22;64278;45.642;13.756;2023-02-22T17:41:23;21.60;60.20
15609;DHT22;64278;45.642;13.756;2023-02-22T17:43:49;21.60;60.10
15609;DHT22;64278;45.642;13.756;2023-02-22T17:46:15;21.60;60.10
15609;DHT22;64278;45.642;13.756;2023-02-22T17:48:40;21.60;60.10
15609;DHT22;64278;45.642;13.756;2023-02-22T17:51:08;21.60;60.10
15609;DHT22;64278;45.642;13.756;2023-02-22T17:53:35;21.60;60.00
15609;DHT22;64278;45.642;13.756;2023-02-22T17:56:09;21.60;60.00
15609;DHT22;64278;45.642;13.756;2023-02-22T17:58:35;21.60;60.00
15609;DHT22;64278;45.642;13.756;2023-02-22T18:01:01;21.60;59.90
15609;DHT22;64278;45.642;13.756;2023-02-22T18:03:27;21.50;59.80
15609;DHT22;64278;45.642;13.756;2023-02-22T18:05:56;21.60;59.80
15609;DHT22;64278;45.642;13.756;2023-02-22T18:08:23;21.60;59.80
15609;DHT22;64278;45.642;13.756;2023-02-22T18:10:49;21.60;59.80
15609;DHT22;64278;45.642;13.756;2023-02-22T18:13:21;21.60;59.70